createdAt,value
2018-08-23T00:00:12.326Z,23.50
2018-08-23T00:01:27.261Z,23.40
2018-08-23T00:02:33.798Z,23.40
2018-08-23T00:03:40.129Z,23.40
2018-08-23T00:04:44.328Z,23.40
2018-08-23T00:05:54.498Z,23.40
2018-08-23T00:07:01.775Z,23.40
2018-08-23T00:09:40.409Z,23.40
2018-08-23T00:10:54.396Z,23.40
2018-08-23T00:12:00.740Z,23.30
2018-08-23T00:13:07.235Z,23.30
2018-08-23T00:14:12.322Z,23.30
2018-08-23T00:15:20.050Z,23.30
2018-08-23T00:16:38.578Z,23.30
2018-08-23T00:17:47.725Z,23.30
2018-08-23T00:18:52.428Z,23.30
2018-08-23T00:19:56.500Z,23.20
2018-08-23T00:21:00.926Z,23.20
2018-08-23T00:22:05.143Z,23.20
2018-08-23T00:23:09.635Z,23.20
2018-08-23T00:24:22.775Z,23.20
2018-08-23T00:25:26.885Z,23.20
2018-08-23T00:26:30.968Z,23.10
2018-08-23T00:27:35.177Z,23.20
2018-08-23T00:28:39.412Z,23.10
2018-08-23T00:29:43.497Z,23.10
2018-08-23T00:30:47.754Z,23.10
2018-08-23T00:31:57.045Z,23.10
2018-08-23T00:33:02.676Z,23.10
2018-08-23T00:34:06.897Z,23.10
2018-08-23T00:35:16.459Z,23.00
2018-08-23T00:36:20.501Z,23.00
2018-08-23T00:37:24.547Z,23.00
2018-08-23T00:38:28.919Z,23.00
2018-08-23T00:39:33.048Z,23.00
2018-08-23T00:40:40.892Z,23.00
2018-08-23T00:41:50.038Z,23.00
2018-08-23T00:42:59.319Z,23.00
2018-08-23T00:44:04.875Z,23.00
2018-08-23T00:45:17.196Z,23.00
2018-08-23T00:46:21.459Z,23.00
2018-08-23T00:47:26.991Z,23.00
2018-08-23T00:48:31.144Z,22.90
2018-08-23T00:49:35.291Z,22.90
2018-08-23T00:51:01.163Z,22.90
2018-08-23T00:52:05.427Z,22.90
2018-08-23T00:53:09.805Z,22.90
2018-08-23T00:54:14.448Z,22.90
2018-08-23T00:55:28.368Z,22.90
2018-08-23T00:56:32.425Z,22.90
2018-08-23T00:57:37.124Z,22.90
2018-08-23T00:58:46.476Z,22.80
2018-08-23T00:59:55.203Z,22.90
2018-08-23T01:01:03.695Z,22.80
2018-08-23T01:02:09.305Z,22.80
2018-08-23T01:03:13.568Z,22.80
2018-08-23T01:04:20.368Z,22.80
2018-08-23T01:05:30.204Z,22.80
2018-08-23T01:06:43.202Z,22.60
2018-08-23T01:07:47.356Z,23.10
2018-08-23T01:08:51.689Z,22.80
2018-08-23T01:09:56.798Z,22.80
2018-08-23T01:11:00.809Z,22.80
2018-08-23T01:12:05.187Z,22.80
2018-08-23T01:13:09.254Z,22.80
2018-08-23T01:14:13.507Z,22.70
2018-08-23T01:15:17.581Z,22.80
2018-08-23T01:16:21.619Z,22.80
2018-08-23T01:17:25.704Z,22.70
2018-08-23T01:18:29.852Z,22.70
2018-08-23T01:19:39.203Z,22.70
2018-08-23T01:20:44.311Z,22.60
2018-08-23T01:21:54.573Z,22.60
2018-08-23T01:23:01.715Z,22.60
2018-08-23T01:24:06.060Z,22.60
2018-08-23T01:25:10.192Z,22.60
2018-08-23T01:26:14.327Z,22.60
2018-08-23T01:27:24.060Z,22.60
2018-08-23T01:28:28.360Z,22.50
2018-08-23T01:29:32.460Z,22.50
2018-08-23T01:30:38.046Z,22.50
2018-08-23T01:31:43.181Z,22.50
2018-08-23T01:32:47.386Z,22.50
2018-08-23T01:33:54.599Z,22.50
2018-08-23T01:35:00.274Z,22.50
2018-08-23T01:36:04.464Z,22.50
2018-08-23T01:37:08.541Z,22.50
2018-08-23T01:38:13.236Z,22.50
2018-08-23T01:39:17.713Z,22.40
2018-08-23T01:40:21.787Z,22.40
2018-08-23T01:41:26.191Z,22.40
2018-08-23T01:42:32.806Z,22.40
2018-08-23T01:43:36.923Z,22.40
2018-08-23T01:44:42.916Z,22.40
2018-08-23T01:45:46.951Z,22.40
2018-08-23T01:46:51.020Z,22.40
2018-08-23T01:47:56.041Z,22.40
2018-08-23T01:49:00.584Z,22.40
2018-08-23T01:50:04.691Z,22.30
2018-08-23T01:51:08.759Z,22.30
2018-08-23T01:52:12.796Z,22.30
2018-08-23T01:53:19.265Z,22.30
2018-08-23T01:54:23.331Z,22.30
2018-08-23T01:55:27.689Z,22.30
2018-08-23T01:56:32.036Z,22.30
2018-08-23T01:57:36.428Z,22.30
2018-08-23T02:00:09.665Z,22.30
2018-08-23T02:01:16.767Z,22.30
2018-08-23T02:02:21.101Z,22.30
2018-08-23T02:03:25.375Z,22.30
2018-08-23T02:04:29.359Z,22.20
2018-08-23T02:05:33.722Z,22.20
2018-08-23T02:06:37.818Z,22.20
2018-08-23T02:07:44.708Z,22.10
2018-08-23T02:08:48.809Z,22.10
2018-08-23T02:09:53.340Z,22.10
2018-08-23T02:10:57.384Z,22.10
2018-08-23T02:12:01.472Z,22.10
2018-08-23T02:13:10.646Z,22.10
2018-08-23T02:14:15.209Z,22.10
2018-08-23T02:15:19.348Z,22.10
2018-08-23T02:16:23.453Z,22.10
2018-08-23T02:17:27.679Z,22.10
2018-08-23T02:18:32.657Z,22.10
2018-08-23T02:19:49.030Z,22.10
2018-08-23T02:20:57.200Z,22.10
2018-08-23T02:22:01.296Z,22.10
2018-08-23T02:23:05.800Z,22.10
2018-08-23T02:24:09.860Z,22.10
2018-08-23T02:25:13.969Z,22.00
2018-08-23T02:26:18.026Z,22.00
2018-08-23T02:27:22.119Z,22.00
2018-08-23T02:28:26.211Z,22.00
2018-08-23T02:29:38.245Z,22.00
2018-08-23T02:30:50.327Z,22.00
2018-08-23T02:31:54.428Z,22.00
2018-08-23T02:32:58.671Z,22.00
2018-08-23T02:34:02.777Z,22.00
2018-08-23T02:35:07.068Z,22.00
2018-08-23T02:36:18.071Z,22.00
2018-08-23T02:37:22.340Z,22.00
2018-08-23T02:38:28.291Z,22.00
2018-08-23T02:39:32.351Z,21.90
2018-08-23T02:40:37.710Z,21.90
2018-08-23T02:41:42.357Z,21.90
2018-08-23T02:42:46.366Z,21.90
2018-08-23T02:43:50.432Z,21.90
2018-08-23T02:44:56.396Z,21.90
2018-08-23T02:46:03.224Z,21.90
2018-08-23T02:47:07.365Z,21.90
2018-08-23T02:48:11.378Z,21.90
2018-08-23T02:49:17.035Z,21.90
2018-08-23T02:50:21.054Z,21.90
2018-08-23T02:51:40.940Z,21.90
2018-08-23T02:52:45.025Z,21.90
2018-08-23T02:53:49.667Z,21.90
2018-08-23T02:54:54.075Z,21.90
2018-08-23T02:56:03.297Z,21.90
2018-08-23T02:57:11.831Z,21.90
2018-08-23T02:58:16.068Z,21.90
2018-08-23T02:59:20.125Z,21.90
2018-08-23T03:00:28.460Z,21.90
2018-08-23T03:01:34.038Z,21.90
2018-08-23T03:02:38.655Z,21.90
2018-08-23T03:03:55.038Z,21.90
2018-08-23T03:04:59.349Z,21.90
2018-08-23T03:06:03.790Z,21.90
2018-08-23T03:07:07.932Z,21.90
2018-08-23T03:08:12.187Z,21.90
2018-08-23T03:09:16.283Z,21.90
2018-08-23T03:10:20.452Z,21.90
2018-08-23T03:11:25.105Z,21.80
2018-08-23T03:12:29.171Z,21.80
2018-08-23T03:13:35.125Z,21.80
2018-08-23T03:14:39.639Z,21.80
2018-08-23T03:15:43.667Z,21.70
2018-08-23T03:17:30.986Z,21.70
2018-08-23T03:18:35.048Z,21.70
2018-08-23T03:19:39.662Z,21.70
2018-08-23T03:20:43.741Z,21.60
2018-08-23T03:21:50.945Z,21.60
2018-08-23T03:22:56.188Z,21.60
2018-08-23T03:24:00.287Z,21.60
2018-08-23T03:25:05.692Z,21.60
2018-08-23T03:26:09.751Z,21.50
2018-08-23T03:27:14.025Z,21.50
2018-08-23T03:28:18.238Z,21.50
2018-08-23T03:29:22.338Z,21.50
2018-08-23T03:30:26.393Z,21.50
2018-08-23T03:31:30.499Z,21.50
2018-08-23T03:32:34.498Z,21.50
2018-08-23T03:33:38.662Z,21.50
2018-08-23T03:34:42.713Z,21.50
2018-08-23T03:35:46.802Z,21.50
2018-08-23T03:36:50.871Z,21.50
2018-08-23T03:37:54.965Z,21.50
2018-08-23T03:38:59.320Z,21.50
2018-08-23T03:40:03.734Z,21.50
2018-08-23T03:41:07.821Z,21.50
2018-08-23T03:42:12.217Z,21.50
2018-08-23T03:43:16.345Z,21.50
2018-08-23T03:44:26.531Z,21.50
2018-08-23T03:45:30.547Z,21.50
2018-08-23T03:46:46.416Z,21.40
2018-08-23T03:47:52.957Z,21.40
2018-08-23T03:49:04.215Z,21.40
2018-08-23T03:52:22.678Z,21.40
2018-08-23T03:53:42.272Z,21.40
2018-08-23T03:54:57.317Z,21.30
2018-08-23T03:56:07.847Z,21.30
2018-08-23T03:57:17.081Z,21.30
2018-08-23T03:58:21.186Z,21.30
2018-08-23T03:59:25.217Z,21.30
2018-08-23T04:01:06.298Z,21.30
2018-08-23T04:02:10.492Z,21.30
2018-08-23T04:03:20.470Z,21.30
2018-08-23T04:04:24.522Z,21.30
2018-08-23T04:05:28.526Z,21.30
2018-08-23T04:06:33.343Z,21.20
2018-08-23T04:07:39.354Z,21.20
2018-08-23T04:08:43.512Z,21.20
2018-08-23T04:09:47.515Z,21.20
2018-08-23T04:10:51.568Z,21.20
2018-08-23T04:11:55.786Z,21.20
2018-08-23T04:12:59.831Z,21.20
2018-08-23T04:14:03.895Z,21.20
2018-08-23T04:15:24.657Z,21.20
2018-08-23T04:16:30.259Z,21.20
2018-08-23T04:17:34.590Z,21.20
2018-08-23T04:18:38.666Z,21.20
2018-08-23T04:19:49.561Z,21.20
2018-08-23T04:20:56.053Z,21.20
2018-08-23T04:22:01.253Z,21.20
2018-08-23T04:23:05.397Z,21.20
2018-08-23T04:24:09.539Z,21.20
2018-08-23T04:25:13.574Z,21.20
2018-08-23T04:26:19.634Z,21.20
2018-08-23T04:27:25.424Z,21.20
2018-08-23T04:28:29.409Z,21.20
2018-08-23T04:29:38.711Z,21.20
2018-08-23T04:30:42.736Z,21.20
2018-08-23T04:31:47.017Z,21.10
2018-08-23T04:32:51.365Z,21.10
2018-08-23T04:33:55.400Z,21.10
2018-08-23T04:35:00.770Z,21.10
2018-08-23T04:36:05.591Z,21.10
2018-08-23T04:37:09.623Z,21.10
2018-08-23T04:38:14.844Z,21.10
2018-08-23T04:39:19.335Z,21.10
2018-08-23T04:40:23.436Z,21.10
2018-08-23T04:41:27.631Z,21.10
2018-08-23T04:42:31.805Z,21.10
2018-08-23T04:43:35.844Z,21.10
2018-08-23T04:44:48.036Z,21.10
2018-08-23T04:45:52.318Z,21.10
2018-08-23T04:46:56.611Z,21.10
2018-08-23T04:48:04.970Z,21.10
2018-08-23T04:49:09.314Z,21.10
2018-08-23T04:50:13.779Z,21.10
2018-08-23T04:51:18.346Z,21.10
2018-08-23T04:52:22.507Z,21.10
2018-08-23T04:53:26.607Z,21.10
2018-08-23T04:54:30.601Z,21.10
2018-08-23T04:55:34.640Z,21.10
2018-08-23T04:56:44.816Z,21.10
2018-08-23T04:57:49.640Z,21.10
2018-08-23T04:58:53.752Z,21.10
2018-08-23T04:59:57.776Z,21.00
2018-08-23T05:01:01.826Z,21.00
2018-08-23T05:02:06.207Z,21.00
2018-08-23T05:03:10.264Z,21.00
2018-08-23T05:04:15.377Z,21.00
2018-08-23T05:05:19.633Z,21.10
2018-08-23T05:06:23.790Z,21.00
2018-08-23T05:07:27.977Z,21.00
2018-08-23T05:08:32.211Z,21.00
2018-08-23T05:09:36.689Z,21.00
2018-08-23T05:10:40.808Z,21.00
2018-08-23T05:11:45.159Z,21.00
2018-08-23T05:12:49.355Z,21.00
2018-08-23T05:13:54.248Z,21.00
2018-08-23T05:14:58.650Z,21.00
2018-08-23T05:16:03.322Z,21.00
2018-08-23T05:17:09.765Z,21.00
2018-08-23T05:18:13.897Z,21.00
2018-08-23T05:19:19.506Z,20.90
2018-08-23T05:20:24.331Z,21.00
2018-08-23T05:21:28.601Z,21.00
2018-08-23T05:22:34.536Z,21.00
2018-08-23T05:23:39.084Z,21.00
2018-08-23T05:24:43.661Z,21.00
2018-08-23T05:25:48.045Z,21.00
2018-08-23T05:26:52.690Z,21.00
2018-08-23T05:28:15.486Z,21.00
2018-08-23T05:29:21.200Z,21.00
2018-08-23T05:30:30.848Z,21.00
2018-08-23T05:31:34.911Z,21.00
2018-08-23T05:32:39.046Z,21.00
2018-08-23T05:33:43.129Z,21.10
2018-08-23T05:34:47.693Z,21.00
2018-08-23T05:35:51.773Z,21.00
2018-08-23T05:36:55.859Z,21.00
2018-08-23T05:38:01.356Z,21.00
2018-08-23T05:39:08.472Z,21.10
2018-08-23T05:40:13.824Z,21.00
2018-08-23T05:41:21.576Z,21.00
2018-08-23T05:42:39.335Z,21.10
2018-08-23T05:43:43.925Z,21.10
2018-08-23T05:44:48.172Z,21.10
2018-08-23T05:45:53.716Z,21.10
2018-08-23T05:46:58.131Z,21.10
2018-08-23T05:48:34.149Z,21.10
2018-08-23T05:49:38.884Z,21.10
2018-08-23T05:50:44.755Z,21.10
2018-08-23T05:51:48.791Z,21.10
2018-08-23T05:52:53.761Z,21.10
2018-08-23T05:53:59.239Z,21.10
2018-08-23T05:55:03.710Z,21.10
2018-08-23T05:56:08.306Z,21.10
2018-08-23T05:57:12.780Z,21.10
2018-08-23T05:58:23.587Z,21.00
2018-08-23T05:59:27.738Z,21.00
2018-08-23T06:00:31.839Z,21.10
2018-08-23T06:01:35.943Z,21.00
2018-08-23T06:02:40.415Z,21.00
2018-08-23T06:03:45.984Z,21.10
2018-08-23T06:04:50.217Z,21.10
2018-08-23T06:05:54.723Z,21.10
2018-08-23T06:06:58.730Z,21.10
2018-08-23T06:08:02.748Z,21.10
2018-08-23T06:09:17.270Z,21.10
2018-08-23T06:10:21.389Z,21.10
2018-08-23T06:11:26.272Z,21.10
2018-08-23T06:12:32.942Z,21.10
2018-08-23T06:13:37.047Z,21.10
2018-08-23T06:14:41.169Z,21.00
2018-08-23T06:15:50.540Z,21.00
2018-08-23T06:16:56.555Z,21.00
2018-08-23T06:18:00.904Z,21.00
2018-08-23T06:19:05.054Z,21.00
2018-08-23T06:20:09.458Z,21.00
2018-08-23T06:21:12.988Z,21.00
2018-08-23T06:22:17.176Z,21.00
2018-08-23T06:23:21.265Z,21.00
2018-08-23T06:24:28.561Z,21.00
2018-08-23T06:25:32.812Z,21.00
2018-08-23T06:26:46.669Z,21.00
2018-08-23T06:27:51.152Z,21.10
2018-08-23T06:28:55.290Z,21.10
2018-08-23T06:29:59.660Z,21.10
2018-08-23T06:31:05.376Z,21.10
2018-08-23T06:32:10.712Z,21.10
2018-08-23T06:33:30.177Z,21.10
2018-08-23T06:34:35.959Z,21.20
2018-08-23T06:35:44.518Z,21.20
2018-08-23T06:36:48.574Z,21.20
2018-08-23T06:37:57.601Z,21.20
2018-08-23T06:39:02.266Z,21.20
2018-08-23T06:40:07.272Z,21.20
2018-08-23T06:41:11.503Z,21.20
2018-08-23T06:42:15.538Z,21.20
2018-08-23T06:43:20.085Z,21.20
2018-08-23T06:44:29.088Z,21.30
2018-08-23T06:45:33.792Z,21.20
2018-08-23T06:46:39.055Z,21.30
2018-08-23T06:47:46.845Z,21.30
2018-08-23T06:48:50.923Z,21.30
2018-08-23T06:49:56.001Z,21.30
2018-08-23T06:51:01.242Z,21.30
2018-08-23T06:52:12.996Z,21.30
2018-08-23T06:53:17.913Z,21.30
2018-08-23T06:54:22.080Z,21.30
2018-08-23T06:55:31.316Z,21.40
2018-08-23T06:56:38.032Z,21.40
2018-08-23T06:57:47.128Z,21.40
2018-08-23T06:58:51.861Z,21.40
2018-08-23T06:59:57.232Z,21.40
2018-08-23T07:01:05.504Z,21.40
2018-08-23T07:02:11.439Z,21.40
2018-08-23T07:03:17.623Z,21.50
2018-08-23T07:04:22.129Z,21.50
2018-08-23T07:05:27.715Z,21.50
2018-08-23T07:06:32.711Z,21.50
2018-08-23T07:07:37.072Z,21.50
2018-08-23T07:08:41.681Z,21.60
2018-08-23T07:09:45.938Z,21.60
2018-08-23T07:10:50.574Z,21.60
2018-08-23T07:12:03.231Z,21.60
2018-08-23T07:13:07.615Z,21.60
2018-08-23T07:14:16.767Z,21.60
2018-08-23T07:15:25.903Z,21.60
2018-08-23T07:16:30.252Z,21.60
2018-08-23T07:17:35.013Z,21.60
2018-08-23T07:18:39.187Z,21.70
2018-08-23T07:19:44.978Z,21.70
2018-08-23T07:20:50.342Z,21.70
2018-08-23T07:21:55.174Z,21.80
2018-08-23T07:22:59.403Z,21.80
2018-08-23T07:24:03.795Z,21.80
2018-08-23T07:25:13.225Z,21.80
2018-08-23T07:26:17.355Z,21.80
2018-08-23T07:27:24.543Z,21.90
2018-08-23T07:28:29.417Z,21.90
2018-08-23T07:29:36.519Z,21.90
2018-08-23T07:30:41.603Z,21.90
2018-08-23T07:31:57.360Z,21.90
2018-08-23T07:33:02.255Z,22.00
2018-08-23T07:34:06.828Z,22.00
2018-08-23T07:35:16.381Z,22.00
2018-08-23T07:36:29.106Z,22.00
2018-08-23T07:37:37.830Z,22.00
2018-08-23T07:38:47.023Z,22.00
2018-08-23T07:39:58.487Z,22.10
2018-08-23T07:41:03.389Z,22.00
2018-08-23T07:42:18.194Z,22.10
2018-08-23T07:43:23.145Z,22.10
2018-08-23T07:44:27.372Z,22.10
2018-08-23T07:45:31.500Z,22.10
2018-08-23T07:46:36.901Z,22.10
2018-08-23T07:47:46.213Z,22.20
2018-08-23T07:48:52.766Z,22.20
2018-08-23T07:50:02.161Z,22.20
2018-08-23T07:51:26.141Z,22.20
2018-08-23T07:52:32.067Z,22.20
2018-08-23T07:53:36.728Z,22.30
2018-08-23T07:54:42.324Z,22.30
2018-08-23T07:55:46.469Z,22.30
2018-08-23T07:56:52.364Z,22.30
2018-08-23T07:57:57.924Z,22.30
2018-08-23T07:59:03.128Z,22.40
2018-08-23T08:00:44.902Z,22.40
2018-08-23T08:01:49.774Z,22.40
2018-08-23T08:02:56.256Z,22.50
2018-08-23T08:04:01.575Z,22.50
2018-08-23T08:05:06.619Z,22.50
2018-08-23T08:06:17.087Z,22.50
2018-08-23T08:07:26.776Z,22.60
2018-08-23T08:08:35.094Z,22.60
2018-08-23T08:09:41.379Z,22.60
2018-08-23T08:10:48.451Z,22.60
2018-08-23T08:11:57.851Z,22.70
2018-08-23T08:13:02.344Z,22.70
2018-08-23T08:14:15.667Z,22.70
2018-08-23T08:15:21.337Z,22.70
2018-08-23T08:16:31.384Z,22.80
2018-08-23T08:17:36.328Z,22.80
2018-08-23T08:18:43.747Z,22.80
2018-08-23T08:20:02.841Z,22.80
2018-08-23T08:21:07.214Z,22.80
2018-08-23T08:22:11.416Z,22.90
2018-08-23T08:23:16.876Z,22.90
2018-08-23T08:24:23.320Z,22.90
2018-08-23T08:25:27.774Z,22.90
2018-08-23T08:26:33.684Z,22.90
2018-08-23T08:27:39.812Z,23.00
2018-08-23T08:28:46.775Z,23.00
2018-08-23T08:29:51.674Z,23.00
2018-08-23T08:31:01.390Z,23.00
2018-08-23T08:32:06.630Z,23.00
2018-08-23T08:33:14.101Z,23.00
2018-08-23T08:34:19.239Z,23.00
2018-08-23T08:35:23.464Z,23.10
2018-08-23T08:36:31.739Z,23.00
2018-08-23T08:37:36.095Z,23.10
2018-08-23T08:38:40.355Z,23.10
2018-08-23T08:39:45.178Z,23.10
2018-08-23T08:40:52.282Z,23.10
2018-08-23T08:41:57.737Z,23.10
2018-08-23T08:43:04.557Z,23.10
2018-08-23T08:44:09.058Z,23.10
2018-08-23T08:45:13.832Z,23.10
2018-08-23T08:46:18.249Z,23.20
2018-08-23T08:47:22.585Z,23.10
2018-08-23T08:48:33.062Z,23.20
2018-08-23T08:49:37.159Z,23.20
2018-08-23T08:52:10.796Z,23.20
2018-08-23T08:53:15.195Z,23.20
2018-08-23T08:54:19.648Z,23.30
2018-08-23T08:55:24.704Z,23.30
2018-08-23T08:56:35.473Z,23.30
2018-08-23T08:57:42.023Z,23.30
2018-08-23T08:58:47.219Z,23.40
2018-08-23T08:59:51.402Z,23.40
2018-08-23T09:00:58.008Z,23.40
2018-08-23T09:02:02.290Z,23.50
2018-08-23T09:03:06.843Z,23.50
2018-08-23T09:04:15.401Z,23.50
2018-08-23T09:05:19.772Z,23.60
2018-08-23T09:06:28.973Z,23.60
2018-08-23T09:07:36.661Z,23.60
2018-08-23T09:08:41.173Z,23.60
2018-08-23T09:09:45.458Z,23.60
2018-08-23T09:10:50.324Z,23.70
2018-08-23T09:11:55.301Z,23.70
2018-08-23T09:12:59.383Z,23.80
2018-08-23T09:14:07.094Z,23.80
2018-08-23T09:15:11.251Z,23.80
2018-08-23T09:16:16.085Z,23.90
2018-08-23T09:17:38.766Z,23.90
2018-08-23T09:18:46.411Z,24.00
2018-08-23T09:20:08.249Z,24.00
2018-08-23T09:21:14.779Z,24.00
2018-08-23T09:22:20.275Z,24.00
2018-08-23T09:23:25.457Z,24.00
2018-08-23T09:24:30.374Z,24.10
2018-08-23T09:25:40.174Z,24.10
2018-08-23T09:26:45.061Z,24.10
2018-08-23T09:27:50.204Z,24.10
2018-08-23T09:28:54.805Z,24.10
2018-08-23T09:29:59.936Z,24.20
2018-08-23T09:31:06.378Z,24.20
2018-08-23T09:32:13.952Z,24.20
2018-08-23T09:33:24.014Z,24.20
2018-08-23T09:34:28.132Z,24.30
2018-08-23T09:35:33.539Z,24.30
2018-08-23T09:36:38.303Z,24.30
2018-08-23T09:37:43.510Z,24.30
2018-08-23T09:38:48.915Z,24.30
2018-08-23T09:39:54.441Z,24.40
2018-08-23T09:40:58.826Z,24.40
2018-08-23T09:42:03.732Z,24.40
2018-08-23T09:43:08.410Z,24.40
2018-08-23T09:44:12.587Z,24.40
2018-08-23T09:45:20.537Z,24.40
2018-08-23T09:46:25.057Z,24.50
2018-08-23T09:47:31.328Z,24.50
2018-08-23T09:48:36.635Z,24.50
2018-08-23T09:49:44.177Z,24.50
2018-08-23T09:50:48.721Z,24.50
2018-08-23T09:51:53.335Z,24.50
2018-08-23T09:52:58.676Z,24.60
2018-08-23T09:54:03.911Z,24.50
2018-08-23T09:55:09.299Z,24.50
2018-08-23T09:56:31.205Z,24.50
2018-08-23T09:57:37.369Z,24.60
2018-08-23T09:58:42.222Z,24.60
2018-08-23T09:59:50.703Z,24.60
2018-08-23T10:01:00.590Z,24.60
2018-08-23T10:02:12.387Z,24.70
2018-08-23T10:03:22.001Z,24.70
2018-08-23T10:04:32.596Z,24.70
2018-08-23T10:05:47.560Z,24.80
2018-08-23T10:07:04.511Z,24.80
2018-08-23T10:08:13.903Z,24.80
2018-08-23T10:09:23.047Z,24.80
2018-08-23T10:10:32.730Z,24.80
2018-08-23T10:11:43.308Z,24.80
2018-08-23T10:12:52.709Z,24.90
2018-08-23T10:14:16.175Z,24.90
2018-08-23T10:15:26.616Z,25.00
2018-08-23T10:16:36.074Z,25.00
2018-08-23T10:17:46.788Z,25.10
2018-08-23T10:18:52.216Z,25.10
2018-08-23T10:20:01.695Z,25.10
2018-08-23T10:21:06.629Z,25.20
2018-08-23T10:22:16.229Z,25.20
2018-08-23T10:23:24.846Z,25.20
2018-08-23T10:24:33.263Z,25.20
2018-08-23T10:25:43.545Z,25.20
2018-08-23T10:26:49.168Z,25.20
2018-08-23T10:27:56.107Z,25.30
2018-08-23T10:29:01.340Z,25.30
2018-08-23T10:30:05.840Z,25.30
2018-08-23T10:31:12.271Z,25.40
2018-08-23T10:32:16.415Z,25.40
2018-08-23T10:33:25.924Z,25.50
2018-08-23T10:34:30.218Z,25.50
2018-08-23T10:35:48.216Z,25.50
2018-08-23T10:36:56.050Z,25.60
2018-08-23T10:38:00.665Z,25.70
2018-08-23T10:39:08.503Z,25.70
2018-08-23T10:40:13.167Z,25.70
2018-08-23T10:41:19.186Z,25.80
2018-08-23T10:42:24.115Z,25.90
2018-08-23T10:43:33.292Z,25.90
2018-08-23T10:44:37.492Z,26.00
2018-08-23T10:45:43.497Z,26.00
2018-08-23T10:46:54.682Z,26.00
2018-08-23T10:48:04.134Z,25.90
2018-08-23T10:49:08.727Z,26.00
2018-08-23T10:50:13.388Z,26.00
2018-08-23T10:51:19.283Z,26.00
2018-08-23T10:52:23.639Z,26.00
2018-08-23T10:53:28.256Z,26.10
2018-08-23T10:54:32.583Z,26.10
2018-08-23T10:55:37.997Z,26.10
2018-08-23T10:56:43.352Z,26.10
2018-08-23T10:57:49.271Z,26.10
2018-08-23T10:58:53.897Z,26.10
2018-08-23T10:59:58.238Z,26.10
2018-08-23T11:01:03.125Z,26.00
2018-08-23T11:02:07.568Z,26.10
2018-08-23T11:03:12.434Z,26.10
2018-08-23T11:04:16.636Z,26.10
2018-08-23T11:05:22.133Z,26.20
2018-08-23T11:06:26.303Z,26.20
2018-08-23T11:07:35.534Z,26.30
2018-08-23T11:08:39.876Z,26.30
2018-08-23T11:09:49.350Z,26.40
2018-08-23T11:10:59.357Z,26.40
2018-08-23T11:12:04.585Z,26.50
2018-08-23T11:13:13.835Z,26.50
2018-08-23T11:14:23.218Z,26.50
2018-08-23T11:15:28.431Z,26.60
2018-08-23T11:16:40.072Z,26.60
2018-08-23T11:17:52.189Z,26.60
2018-08-23T11:19:01.916Z,26.60
2018-08-23T11:20:11.805Z,26.70
2018-08-23T11:21:17.740Z,26.70
2018-08-23T11:22:26.414Z,26.70
2018-08-23T11:23:31.030Z,26.80
2018-08-23T11:24:35.573Z,26.80
2018-08-23T11:25:41.035Z,26.90
2018-08-23T11:27:13.427Z,26.90
2018-08-23T11:28:23.156Z,26.90
2018-08-23T11:29:28.200Z,27.00
2018-08-23T11:30:33.726Z,27.00
2018-08-23T11:31:41.674Z,27.10
2018-08-23T11:32:47.229Z,27.20
2018-08-23T11:34:06.218Z,27.30
2018-08-23T11:35:13.526Z,27.50
2018-08-23T11:36:18.289Z,28.10
2018-08-23T11:37:23.998Z,28.60
2018-08-23T11:38:30.385Z,29.30
2018-08-23T11:39:34.635Z,29.90
2018-08-23T11:40:39.044Z,30.40
2018-08-23T11:41:46.001Z,31.00
2018-08-23T11:42:52.665Z,31.60
2018-08-23T11:44:00.194Z,32.20
2018-08-23T11:45:09.504Z,32.60
2018-08-23T11:46:15.840Z,33.00
2018-08-23T11:47:20.443Z,33.50
2018-08-23T11:48:25.805Z,34.00
2018-08-23T11:49:32.108Z,34.40
2018-08-23T11:50:42.534Z,34.80
2018-08-23T11:51:52.968Z,35.00
2018-08-23T11:53:14.647Z,35.30
2018-08-23T11:54:18.752Z,35.70
2018-08-23T11:55:23.286Z,36.00
2018-08-23T11:56:28.742Z,36.20
2018-08-23T11:57:38.017Z,36.30
2018-08-23T11:58:48.239Z,36.40
2018-08-23T12:00:00.553Z,36.40
2018-08-23T12:01:22.068Z,36.50
2018-08-23T12:03:03.393Z,36.70
2018-08-23T12:04:08.870Z,36.90
2018-08-23T12:05:18.848Z,37.10
2018-08-23T12:06:23.569Z,37.30
2018-08-23T12:07:28.290Z,37.60
2018-08-23T12:08:33.539Z,37.80
2018-08-23T12:09:45.407Z,37.80
2018-08-23T12:10:55.065Z,37.70
2018-08-23T12:12:00.242Z,37.60
2018-08-23T12:13:06.754Z,37.50
2018-08-23T12:14:12.757Z,37.50
2018-08-23T12:15:24.644Z,37.30
2018-08-23T12:16:32.206Z,37.40
2018-08-23T12:17:40.370Z,37.50
2018-08-23T12:18:47.426Z,37.60
2018-08-23T12:19:52.090Z,37.70
2018-08-23T12:20:58.343Z,37.80
2018-08-23T12:22:02.930Z,38.00
2018-08-23T12:23:12.859Z,38.30
2018-08-23T12:24:18.020Z,38.40
2018-08-23T12:25:23.353Z,37.80
2018-08-23T12:26:28.270Z,37.30
2018-08-23T12:27:32.483Z,36.70
2018-08-23T12:28:46.705Z,35.90
2018-08-23T12:29:53.114Z,35.70
2018-08-23T12:30:57.653Z,35.80
2018-08-23T12:32:06.648Z,36.00
2018-08-23T12:33:11.401Z,36.20
2018-08-23T12:34:25.572Z,36.40
2018-08-23T12:35:31.365Z,36.30
2018-08-23T12:36:41.078Z,36.30
2018-08-23T12:37:56.259Z,36.30
2018-08-23T12:39:06.779Z,35.90
2018-08-23T12:40:17.113Z,35.80
2018-08-23T12:41:26.482Z,35.50
2018-08-23T12:42:52.333Z,35.70
2018-08-23T12:44:27.225Z,35.70
2018-08-23T12:45:32.752Z,35.50
2018-08-23T12:46:36.875Z,34.90
2018-08-23T12:47:41.281Z,34.50
2018-08-23T12:48:46.029Z,34.40
2018-08-23T12:49:51.219Z,34.20
2018-08-23T12:50:55.656Z,33.90
2018-08-23T12:52:00.028Z,33.70
2018-08-23T12:53:04.152Z,33.50
2018-08-23T12:54:09.447Z,33.50
2018-08-23T12:55:15.352Z,33.40
2018-08-23T12:56:19.488Z,33.20
2018-08-23T12:57:24.702Z,33.00
2018-08-23T12:58:29.240Z,32.80
2018-08-23T12:59:34.324Z,32.70
2018-08-23T13:00:39.399Z,32.80
2018-08-23T13:01:44.247Z,33.10
2018-08-23T13:02:48.486Z,33.40
2018-08-23T13:03:52.652Z,33.60
2018-08-23T13:04:57.161Z,33.60
2018-08-23T13:06:02.035Z,33.40
2018-08-23T13:07:07.307Z,33.30
2018-08-23T13:08:11.794Z,33.20
2018-08-23T13:09:16.090Z,33.00
2018-08-23T13:10:20.210Z,32.70
2018-08-23T13:11:24.443Z,32.50
2018-08-23T13:12:29.177Z,32.40
2018-08-23T13:13:34.678Z,32.30
2018-08-23T13:14:38.780Z,32.10
2018-08-23T13:15:43.470Z,31.90
2018-08-23T13:16:47.607Z,31.80
2018-08-23T13:17:53.769Z,31.70
2018-08-23T13:18:59.189Z,31.60
2018-08-23T13:20:03.587Z,31.40
2018-08-23T13:21:10.746Z,31.30
2018-08-23T13:22:47.205Z,31.20
2018-08-23T13:23:52.472Z,31.10
2018-08-23T13:25:02.790Z,31.00
2018-08-23T13:26:08.733Z,30.80
2018-08-23T13:27:13.291Z,30.80
2018-08-23T13:28:18.339Z,30.80
2018-08-23T13:29:23.480Z,30.80
2018-08-23T13:30:28.148Z,30.70
2018-08-23T13:31:33.284Z,30.60
2018-08-23T13:32:37.792Z,30.50
2018-08-23T13:33:42.625Z,30.50
2018-08-23T13:34:46.767Z,30.50
2018-08-23T13:35:51.401Z,30.50
2018-08-23T13:36:56.521Z,30.50
2018-08-23T13:38:01.407Z,30.50
2018-08-23T13:39:12.777Z,30.50
2018-08-23T13:40:20.176Z,30.50
2018-08-23T13:41:24.261Z,30.40
2018-08-23T13:42:28.424Z,30.30
2018-08-23T13:43:32.954Z,30.30
2018-08-23T13:44:37.673Z,30.20
2018-08-23T13:45:43.924Z,30.20
2018-08-23T13:46:48.120Z,30.20
2018-08-23T13:47:52.834Z,30.10
2018-08-23T13:48:57.431Z,30.10
2018-08-23T13:50:03.615Z,30.00
2018-08-23T13:51:11.158Z,30.00
2018-08-23T13:52:17.081Z,30.00
2018-08-23T13:53:23.224Z,29.90
2018-08-23T13:54:31.737Z,29.90
2018-08-23T13:55:38.191Z,29.80
2018-08-23T13:56:43.611Z,29.80
2018-08-23T13:57:50.108Z,29.70
2018-08-23T13:58:56.751Z,29.60
2018-08-23T14:00:02.783Z,29.60
2018-08-23T14:01:07.189Z,29.60
2018-08-23T14:02:12.222Z,29.60
2018-08-23T14:03:20.431Z,29.60
2018-08-23T14:04:29.606Z,29.70
2018-08-23T14:05:34.191Z,29.60
2018-08-23T14:06:38.720Z,29.60
2018-08-23T14:07:43.763Z,29.50
2018-08-23T14:08:48.172Z,29.50
2018-08-23T14:09:55.092Z,29.50
2018-08-23T14:11:01.098Z,29.50
2018-08-23T14:12:06.307Z,29.50
2018-08-23T14:13:12.309Z,29.40
2018-08-23T14:14:18.687Z,29.50
2018-08-23T14:15:28.219Z,29.40
2018-08-23T14:16:33.527Z,29.40
2018-08-23T14:17:39.351Z,29.40
2018-08-23T14:18:45.466Z,29.40
2018-08-23T14:19:51.104Z,29.40
2018-08-23T14:20:56.359Z,29.40
2018-08-23T14:22:01.433Z,29.40
2018-08-23T14:23:07.549Z,29.40
2018-08-23T14:24:14.140Z,29.40
2018-08-23T14:25:19.094Z,29.40